createdAt,value
2022-11-13T00:00:46.912Z,9.50
2022-11-13T00:06:59.793Z,8.57
2022-11-13T00:13:11.922Z,9.57
2022-11-13T00:19:25.167Z,8.50
2022-11-13T00:25:37.596Z,10.80
2022-11-13T00:31:49.601Z,9.90
2022-11-13T00:38:02.951Z,10.97
2022-11-13T00:44:15.017Z,9.57
2022-11-13T00:50:27.129Z,10.50
2022-11-13T00:56:40.416Z,11.87
2022-11-13T01:02:52.558Z,11.60
2022-11-13T01:09:04.616Z,11.43
2022-11-13T01:15:17.812Z,10.33
2022-11-13T01:21:30.170Z,10.07
2022-11-13T01:27:42.064Z,12.20
2022-11-13T01:33:56.109Z,12.93
2022-11-13T01:40:09.201Z,11.20
2022-11-13T01:46:25.979Z,9.60
2022-11-13T01:52:41.971Z,10.33
2022-11-13T01:59:00.010Z,9.10
2022-11-13T02:05:11.917Z,11.13
2022-11-13T02:11:25.276Z,10.43
2022-11-13T02:17:44.395Z,11.07
2022-11-13T02:24:06.272Z,12.07
2022-11-13T02:30:26.903Z,10.83
2022-11-13T02:36:39.497Z,11.27
2022-11-13T02:42:50.999Z,12.43
2022-11-13T02:49:04.303Z,10.60
2022-11-13T02:55:16.447Z,12.73
2022-11-13T03:01:28.474Z,10.80
2022-11-13T03:07:41.894Z,12.07
2022-11-13T03:13:55.146Z,11.20
2022-11-13T03:20:08.252Z,11.10
2022-11-13T03:26:21.448Z,12.77
2022-11-13T03:32:33.560Z,11.50
2022-11-13T03:38:45.465Z,12.57
2022-11-13T03:44:58.812Z,11.83
2022-11-13T03:51:10.780Z,12.00
2022-11-13T03:57:23.003Z,10.83
2022-11-13T04:03:36.721Z,12.33
2022-11-13T04:09:48.037Z,10.17
2022-11-13T04:15:59.971Z,10.37
2022-11-13T04:22:13.424Z,11.33
2022-11-13T04:28:25.749Z,11.47
2022-11-13T04:34:37.913Z,12.63
2022-11-13T04:41:12.557Z,11.87
2022-11-13T04:47:24.655Z,10.80
2022-11-13T04:53:36.541Z,11.30
2022-11-13T04:59:49.813Z,11.87
2022-11-13T05:06:05.985Z,11.60
2022-11-13T05:12:17.563Z,12.97
2022-11-13T05:18:31.734Z,10.77
2022-11-13T05:24:43.148Z,13.00
2022-11-13T05:30:54.721Z,11.30
2022-11-13T05:37:07.634Z,12.30
2022-11-13T05:43:19.563Z,11.83
2022-11-13T05:49:31.626Z,12.80
2022-11-13T05:55:44.651Z,12.10
2022-11-13T06:01:56.667Z,11.97
2022-11-13T06:08:08.415Z,13.40
2022-11-13T06:14:21.699Z,13.03
2022-11-13T06:20:35.955Z,12.20
2022-11-13T06:26:47.672Z,12.17
2022-11-13T06:33:00.862Z,11.80
2022-11-13T06:39:13.409Z,14.30
2022-11-13T06:45:25.494Z,11.73
2022-11-13T06:51:38.910Z,14.97
2022-11-13T06:57:51.136Z,14.07
2022-11-13T07:04:03.945Z,12.47
2022-11-13T07:10:18.045Z,13.60
2022-11-13T07:16:44.125Z,14.70
2022-11-13T07:23:03.656Z,12.87
2022-11-13T07:29:17.225Z,12.57
2022-11-13T07:35:29.035Z,15.73
2022-11-13T07:41:40.767Z,13.17
2022-11-13T07:47:54.250Z,12.37
2022-11-13T07:54:06.175Z,10.60
2022-11-13T08:00:19.351Z,15.40
2022-11-13T08:06:32.637Z,16.30
2022-11-13T08:12:47.552Z,13.10
2022-11-13T08:18:59.215Z,14.00
2022-11-13T08:25:12.273Z,18.10
2022-11-13T08:31:24.286Z,15.20
2022-11-13T08:37:35.783Z,13.17
2022-11-13T08:43:49.074Z,13.93
2022-11-13T08:50:01.093Z,18.10
2022-11-13T08:56:12.636Z,13.33
2022-11-13T09:02:26.287Z,15.13
2022-11-13T09:08:38.237Z,14.47
2022-11-13T09:14:50.396Z,16.93
2022-11-13T09:21:04.534Z,13.40
2022-11-13T09:27:16.397Z,15.93
2022-11-13T09:33:28.483Z,16.27
2022-11-13T09:39:41.517Z,15.67
2022-11-13T09:45:57.837Z,16.57
2022-11-13T09:52:16.963Z,14.30
2022-11-13T09:58:49.851Z,17.20
2022-11-13T10:05:08.717Z,20.10
2022-11-13T10:11:28.005Z,18.30
2022-11-13T10:17:45.617Z,13.77
2022-11-13T10:23:58.577Z,14.63
2022-11-13T10:30:16.637Z,15.53
2022-11-13T10:36:37.710Z,16.07
2022-11-13T10:42:49.240Z,15.27
2022-11-13T10:49:13.129Z,18.20
2022-11-13T10:55:39.446Z,19.20
2022-11-13T11:01:51.421Z,18.00
2022-11-13T11:08:08.012Z,19.00
2022-11-13T11:14:25.004Z,18.13
2022-11-13T11:20:48.498Z,17.43
2022-11-13T11:27:06.302Z,17.30
2022-11-13T11:33:26.287Z,14.13
2022-11-13T11:39:43.476Z,11.67
2022-11-13T11:45:55.300Z,13.93
2022-11-13T11:52:22.869Z,11.87
2022-11-13T11:59:13.730Z,14.07
2022-11-13T12:05:31.083Z,14.47
2022-11-13T12:11:52.922Z,10.70
2022-11-13T12:18:15.739Z,10.80
2022-11-13T12:24:53.275Z,10.70
2022-11-13T12:31:18.838Z,10.20
2022-11-13T12:37:39.562Z,10.53
2022-11-13T12:44:05.032Z,9.60
2022-11-13T12:50:32.125Z,10.13
2022-11-13T12:56:44.527Z,9.97
2022-11-13T13:03:20.504Z,11.17
2022-11-13T13:09:45.472Z,10.40
2022-11-13T13:15:59.215Z,12.20
2022-11-13T13:22:12.827Z,10.77
2022-11-13T13:28:26.962Z,12.83
2022-11-13T13:34:58.793Z,12.87
2022-11-13T13:41:22.032Z,14.43
2022-11-13T13:47:39.628Z,16.93
2022-11-13T13:53:55.150Z,14.67
2022-11-13T14:00:13.078Z,14.63
2022-11-13T14:06:26.758Z,16.03
2022-11-13T14:12:43.725Z,18.20
2022-11-13T14:19:05.321Z,17.50
2022-11-13T14:25:24.716Z,15.93
2022-11-13T14:31:37.511Z,17.03
2022-11-13T14:37:49.917Z,18.43
2022-11-13T14:44:03.955Z,18.57
2022-11-13T14:50:24.607Z,18.50
2022-11-13T14:56:38.396Z,14.07
2022-11-13T15:02:51.358Z,11.90
2022-11-13T15:09:04.100Z,11.43
2022-11-13T15:15:19.376Z,10.97
2022-11-13T15:21:33.150Z,8.80
2022-11-13T15:27:45.191Z,8.00
2022-11-13T15:33:57.268Z,8.50
2022-11-13T15:40:12.089Z,6.73
2022-11-13T15:46:25.418Z,5.43
2022-11-13T15:52:42.403Z,5.03
2022-11-13T15:58:55.759Z,5.27
2022-11-13T16:05:09.002Z,6.30
2022-11-13T16:11:21.900Z,5.07
2022-11-13T16:17:42.651Z,7.37
2022-11-13T16:23:54.583Z,5.50
2022-11-13T16:30:07.436Z,6.67
2022-11-13T16:36:22.621Z,5.20
2022-11-13T16:42:34.494Z,4.73
2022-11-13T16:48:46.897Z,5.90
2022-11-13T16:55:05.239Z,5.00
2022-11-13T17:01:19.924Z,4.80
2022-11-13T17:07:31.554Z,5.00
2022-11-13T17:13:45.202Z,3.80
2022-11-13T17:19:57.887Z,4.07
2022-11-13T17:26:09.872Z,5.67
2022-11-13T17:32:23.376Z,4.27
2022-11-13T17:38:35.259Z,4.80
2022-11-13T17:44:47.326Z,5.70
2022-11-13T17:51:02.587Z,5.43
2022-11-13T17:57:15.037Z,6.17
2022-11-13T18:03:27.587Z,4.10
2022-11-13T18:09:40.927Z,4.80
2022-11-13T18:15:52.744Z,5.20
2022-11-13T18:22:04.513Z,3.90
2022-11-13T18:28:18.402Z,6.23
2022-11-13T18:34:30.405Z,5.03
2022-11-13T18:40:42.563Z,4.77
2022-11-13T18:46:56.082Z,7.10
2022-11-13T18:53:08.246Z,7.40
2022-11-13T18:59:20.288Z,7.60
2022-11-13T19:05:33.694Z,6.20
2022-11-13T19:11:46.100Z,8.70
2022-11-13T19:17:58.196Z,8.97
2022-11-13T19:24:14.505Z,8.20
2022-11-13T19:30:25.877Z,10.03
2022-11-13T19:36:38.448Z,10.60
2022-11-13T19:42:52.942Z,12.90
2022-11-13T19:49:05.023Z,13.37
2022-11-13T19:55:17.017Z,14.03
2022-11-13T20:01:32.374Z,13.00
2022-11-13T20:07:43.957Z,12.40
2022-11-13T20:13:57.308Z,18.40
2022-11-13T20:20:11.491Z,17.70
2022-11-13T20:26:23.650Z,16.40
2022-11-13T20:32:38.160Z,16.60
2022-11-13T20:38:53.426Z,16.03
2022-11-13T20:45:06.722Z,18.70
2022-11-13T20:51:20.861Z,16.40
2022-11-13T20:57:40.914Z,17.20
2022-11-13T21:03:53.768Z,21.63
2022-11-13T21:10:06.846Z,18.93
2022-11-13T21:16:20.958Z,19.73
2022-11-13T21:22:33.175Z,17.13
2022-11-13T21:28:45.364Z,19.63
2022-11-13T21:34:59.667Z,17.33
2022-11-13T21:41:25.219Z,21.30
2022-11-13T21:47:37.642Z,18.53
2022-11-13T21:53:50.912Z,21.27
2022-11-13T22:00:02.968Z,22.43
2022-11-13T22:06:21.045Z,17.60
2022-11-13T22:12:34.421Z,22.10
2022-11-13T22:18:46.459Z,22.73
2022-11-13T22:24:58.536Z,25.83
2022-11-13T22:31:16.091Z,22.33
2022-11-13T22:37:27.921Z,23.47
2022-11-13T22:43:41.619Z,24.70
2022-11-13T22:49:55.039Z,25.20
2022-11-13T22:56:09.831Z,22.70
2022-11-13T23:02:21.805Z,26.20
2022-11-13T23:08:39.045Z,25.23
2022-11-13T23:14:50.986Z,23.77
2022-11-13T23:21:03.104Z,24.83
2022-11-13T23:27:16.197Z,23.60
2022-11-13T23:33:28.855Z,25.20
2022-11-13T23:39:40.145Z,24.10
2022-11-13T23:45:53.648Z,25.53
2022-11-13T23:52:05.900Z,23.97
2022-11-13T23:58:18.401Z,29.27
